sensor_id;sensor_type;location;lat;lon;timestamp;pressure;altitude;pressure_sealevel;temperature;humidity
84289;BME280;75147;50.294;18.660;2024-01-16T00:00:46;97453.22;;;-0.46;71.82
84289;BME280;75147;50.294;18.660;2024-01-16T00:03:11;97454.81;;;-0.45;71.58
84289;BME280;75147;50.294;18.660;2024-01-16T00:05:37;97450.47;;;-0.43;71.29
84289;BME280;75147;50.294;18.660;2024-01-16T00:08:02;97453.81;;;-0.43;71.50
84289;BME280;75147;50.294;18.660;2024-01-16T00:10:28;97460.56;;;-0.42;71.29
84289;BME280;75147;50.294;18.660;2024-01-16T00:12:53;97458.75;;;-0.39;71.49
84289;BME280;75147;50.294;18.660;2024-01-16T00:15:19;97463.84;;;-0.39;71.51
84289;BME280;75147;50.294;18.660;2024-01-16T00:17:44;97466.28;;;-0.38;71.59
84289;BME280;75147;50.294;18.660;2024-01-16T00:20:10;97472.13;;;-0.36;71.79
84289;BME280;75147;50.294;18.660;2024-01-16T00:22:36;97475.50;;;-0.35;71.91
84289;BME280;75147;50.294;18.660;2024-01-16T00:25:01;97479.78;;;-0.36;71.63
84289;BME280;75147;50.294;18.660;2024-01-16T00:27:27;97488.97;;;-0.33;71.61
84289;BME280;75147;50.294;18.660;2024-01-16T00:29:52;97480.50;;;-0.34;71.77
84289;BME280;75147;50.294;18.660;2024-01-16T00:32:17;97479.59;;;-0.33;71.94
84289;BME280;75147;50.294;18.660;2024-01-16T00:34:43;97482.03;;;-0.31;72.12
84289;BME280;75147;50.294;18.660;2024-01-16T00:37:08;97481.41;;;-0.35;71.81
84289;BME280;75147;50.294;18.660;2024-01-16T00:39:34;97491.41;;;-0.32;71.40
84289;BME280;75147;50.294;18.660;2024-01-16T00:41:59;97489.69;;;-0.31;71.59
84289;BME280;75147;50.294;18.660;2024-01-16T00:44:25;97488.78;;;-0.30;71.19
84289;BME280;75147;50.294;18.660;2024-01-16T00:46:50;97486.31;;;-0.32;71.82
84289;BME280;75147;50.294;18.660;2024-01-16T00:49:16;97487.13;;;-0.31;71.93
84289;BME280;75147;50.294;18.660;2024-01-16T00:51:41;97499.88;;;-0.31;71.90
84289;BME280;75147;50.294;18.660;2024-01-16T00:54:06;97488.97;;;-0.33;71.98
84289;BME280;75147;50.294;18.660;2024-01-16T00:56:33;97489.81;;;-0.33;72.12
84289;BME280;75147;50.294;18.660;2024-01-16T00:58:59;97486.53;;;-0.35;72.38
84289;BME280;75147;50.294;18.660;2024-01-16T01:01:25;97491.72;;;-0.36;72.34
84289;BME280;75147;50.294;18.660;2024-01-16T01:03:51;97503.56;;;-0.35;72.56
84289;BME280;75147;50.294;18.660;2024-01-16T01:06:17;97505.38;;;-0.37;72.78
84289;BME280;75147;50.294;18.660;2024-01-16T01:08:42;97506.94;;;-0.35;72.90
84289;BME280;75147;50.294;18.660;2024-01-16T01:11:07;97505.28;;;-0.36;73.16
84289;BME280;75147;50.294;18.660;2024-01-16T01:13:33;97506.19;;;-0.37;73.37
84289;BME280;75147;50.294;18.660;2024-01-16T01:15:58;97507.00;;;-0.36;73.40
84289;BME280;75147;50.294;18.660;2024-01-16T01:18:23;97510.56;;;-0.39;73.53
84289;BME280;75147;50.294;18.660;2024-01-16T01:20:49;97509.66;;;-0.38;73.65
84289;BME280;75147;50.294;18.660;2024-01-16T01:23:14;97504.66;;;-0.39;73.48
84289;BME280;75147;50.294;18.660;2024-01-16T01:25:40;97503.84;;;-0.40;73.78
84289;BME280;75147;50.294;18.660;2024-01-16T01:28:05;97503.94;;;-0.42;74.02
84289;BME280;75147;50.294;18.660;2024-01-16T01:30:31;97503.94;;;-0.42;73.61
84289;BME280;75147;50.294;18.660;2024-01-16T01:32:57;97503.19;;;-0.44;74.33
84289;BME280;75147;50.294;18.660;2024-01-16T01:35:22;97508.28;;;-0.44;74.19
84289;BME280;75147;50.294;18.660;2024-01-16T01:37:48;97509.31;;;-0.46;74.62
84289;BME280;75147;50.294;18.660;2024-01-16T01:40:13;97506.94;;;-0.49;74.31
84289;BME280;75147;50.294;18.660;2024-01-16T01:42:41;97501.09;;;-0.51;74.60
84289;BME280;75147;50.294;18.660;2024-01-16T01:45:08;97502.00;;;-0.52;74.58
84289;BME280;75147;50.294;18.660;2024-01-16T01:47:34;97507.09;;;-0.52;74.49
84289;BME280;75147;50.294;18.660;2024-01-16T01:50:00;97506.41;;;-0.54;74.50
84289;BME280;75147;50.294;18.660;2024-01-16T01:52:26;97511.59;;;-0.56;73.91
84289;BME280;75147;50.294;18.660;2024-01-16T01:54:52;97513.22;;;-0.55;74.32
84289;BME280;75147;50.294;18.660;2024-01-16T01:57:17;97513.22;;;-0.55;74.08
84289;BME280;75147;50.294;18.660;2024-01-16T01:59:43;97510.69;;;-0.55;73.46
84289;BME280;75147;50.294;18.660;2024-01-16T02:02:10;97516.59;;;-0.54;73.87
84289;BME280;75147;50.294;18.660;2024-01-16T02:04:36;97509.03;;;-0.56;73.70
84289;BME280;75147;50.294;18.660;2024-01-16T02:07:02;97509.03;;;-0.56;73.87
84289;BME280;75147;50.294;18.660;2024-01-16T02:09:29;97522.63;;;-0.55;73.40
84289;BME280;75147;50.294;18.660;2024-01-16T02:11:54;97513.31;;;-0.56;73.45
84289;BME280;75147;50.294;18.660;2024-01-16T02:14:19;97515.03;;;-0.57;73.30
84289;BME280;75147;50.294;18.660;2024-01-16T02:16:45;97519.25;;;-0.56;73.62
84289;BME280;75147;50.294;18.660;2024-01-16T02:19:10;97509.03;;;-0.56;73.21
84289;BME280;75147;50.294;18.660;2024-01-16T02:21:42;97522.63;;;-0.55;73.23
84289;BME280;75147;50.294;18.660;2024-01-16T02:24:09;97522.63;;;-0.55;73.30
84289;BME280;75147;50.294;18.660;2024-01-16T02:26:35;97525.97;;;-0.55;73.58
84289;BME280;75147;50.294;18.660;2024-01-16T02:29:03;97522.53;;;-0.54;73.54
84289;BME280;75147;50.294;18.660;2024-01-16T02:31:30;97539.47;;;-0.53;73.76
84289;BME280;75147;50.294;18.660;2024-01-16T02:33:56;97544.56;;;-0.53;74.16
84289;BME280;75147;50.294;18.660;2024-01-16T02:36:21;97545.34;;;-0.52;74.56
84289;BME280;75147;50.294;18.660;2024-01-16T02:38:46;97552.31;;;-0.54;74.89
84289;BME280;75147;50.294;18.660;2024-01-16T02:41:16;97553.22;;;-0.55;75.78
84289;BME280;75147;50.294;18.660;2024-01-16T02:43:42;97559.50;;;-0.61;75.98
84289;BME280;75147;50.294;18.660;2024-01-16T02:46:08;97564.84;;;-0.65;77.72
84289;BME280;75147;50.294;18.660;2024-01-16T02:48:36;97566.03;;;-0.71;77.97
84289;BME280;75147;50.294;18.660;2024-01-16T02:51:02;97564.59;;;-0.75;79.08
84289;BME280;75147;50.294;18.660;2024-01-16T02:53:29;97563.94;;;-0.78;79.86
84289;BME280;75147;50.294;18.660;2024-01-16T02:55:54;97571.84;;;-0.83;80.75
84289;BME280;75147;50.294;18.660;2024-01-16T02:58:20;97578.69;;;-0.84;80.88
84289;BME280;75147;50.294;18.660;2024-01-16T03:00:46;97566.94;;;-0.86;81.45
84289;BME280;75147;50.294;18.660;2024-01-16T03:03:12;97576.47;;;-0.90;81.75
84289;BME280;75147;50.294;18.660;2024-01-16T03:05:37;97586.13;;;-0.95;82.51
84289;BME280;75147;50.294;18.660;2024-01-16T03:08:03;97582.91;;;-0.98;82.93
84289;BME280;75147;50.294;18.660;2024-01-16T03:10:28;97582.13;;;-0.99;83.26
84289;BME280;75147;50.294;18.660;2024-01-16T03:12:54;97593.31;;;-1.01;83.07
84289;BME280;75147;50.294;18.660;2024-01-16T03:15:19;97591.75;;;-1.04;83.51
84289;BME280;75147;50.294;18.660;2024-01-16T03:17:45;97593.38;;;-1.03;83.21
84289;BME280;75147;50.294;18.660;2024-01-16T03:20:11;97606.94;;;-1.02;83.47
84289;BME280;75147;50.294;18.660;2024-01-16T03:22:36;97618.88;;;-1.03;83.13
84289;BME280;75147;50.294;18.660;2024-01-16T03:25:02;97606.88;;;-1.01;83.05
84289;BME280;75147;50.294;18.660;2024-01-16T03:27:28;97618.59;;;-0.98;82.02
84289;BME280;75147;50.294;18.660;2024-01-16T03:29:53;97615.72;;;-0.92;80.52
84289;BME280;75147;50.294;18.660;2024-01-16T03:32:18;97625.56;;;-0.86;79.22
84289;BME280;75147;50.294;18.660;2024-01-16T03:34:44;97615.84;;;-0.79;78.55
84289;BME280;75147;50.294;18.660;2024-01-16T03:37:09;97624.03;;;-0.74;77.63
84289;BME280;75147;50.294;18.660;2024-01-16T03:39:35;97641.69;;;-0.71;77.42
84289;BME280;75147;50.294;18.660;2024-01-16T03:42:00;97625.50;;;-0.70;77.68
84289;BME280;75147;50.294;18.660;2024-01-16T03:44:25;97638.16;;;-0.69;76.93
84289;BME280;75147;50.294;18.660;2024-01-16T03:46:51;97630.50;;;-0.69;77.49
84289;BME280;75147;50.294;18.660;2024-01-16T03:49:16;97650.81;;;-0.67;77.57
84289;BME280;75147;50.294;18.660;2024-01-16T03:51:41;97642.34;;;-0.68;77.66
84289;BME280;75147;50.294;18.660;2024-01-16T03:54:12;97644.16;;;-0.70;77.69
84289;BME280;75147;50.294;18.660;2024-01-16T03:56:39;97658.72;;;-0.72;78.04
84289;BME280;75147;50.294;18.660;2024-01-16T03:59:05;97655.38;;;-0.72;78.24
84289;BME280;75147;50.294;18.660;2024-01-16T04:01:34;97674.19;;;-0.75;78.30
84289;BME280;75147;50.294;18.660;2024-01-16T04:04:02;97678.47;;;-0.75;78.83
84289;BME280;75147;50.294;18.660;2024-01-16T04:06:27;97677.72;;;-0.77;78.71
84289;BME280;75147;50.294;18.660;2024-01-16T04:08:54;97680.38;;;-0.79;78.91
84289;BME280;75147;50.294;18.660;2024-01-16T04:11:19;97677.84;;;-0.79;78.91
84289;BME280;75147;50.294;18.660;2024-01-16T04:13:45;97684.66;;;-0.79;79.30
84289;BME280;75147;50.294;18.660;2024-01-16T04:16:11;97679.56;;;-0.79;79.49
84289;BME280;75147;50.294;18.660;2024-01-16T04:18:39;97691.50;;;-0.80;79.59
84289;BME280;75147;50.294;18.660;2024-01-16T04:21:05;97696.59;;;-0.80;79.49
84289;BME280;75147;50.294;18.660;2024-01-16T04:23:30;97695.03;;;-0.83;80.05
84289;BME280;75147;50.294;18.660;2024-01-16T04:25:55;97695.84;;;-0.82;80.44
84289;BME280;75147;50.294;18.660;2024-01-16T04:28:21;97688.28;;;-0.84;80.46
84289;BME280;75147;50.294;18.660;2024-01-16T04:30:46;97682.34;;;-0.84;80.45
84289;BME280;75147;50.294;18.660;2024-01-16T04:33:12;97693.56;;;-0.87;80.41
84289;BME280;75147;50.294;18.660;2024-01-16T04:35:37;97703.75;;;-0.87;80.67
84289;BME280;75147;50.294;18.660;2024-01-16T04:38:02;97715.75;;;-0.89;81.00
84289;BME280;75147;50.294;18.660;2024-01-16T04:40:28;97717.56;;;-0.91;81.28
84289;BME280;75147;50.294;18.660;2024-01-16T04:42:54;97715.00;;;-0.91;80.98
84289;BME280;75147;50.294;18.660;2024-01-16T04:45:19;97714.09;;;-0.90;81.24
84289;BME280;75147;50.294;18.660;2024-01-16T04:47:44;97721.84;;;-0.91;81.67
84289;BME280;75147;50.294;18.660;2024-01-16T04:50:10;97726.28;;;-0.95;81.20
84289;BME280;75147;50.294;18.660;2024-01-16T04:52:35;97731.72;;;-1.01;81.53
84289;BME280;75147;50.294;18.660;2024-01-16T04:55:01;97742.97;;;-1.05;81.71
84289;BME280;75147;50.294;18.660;2024-01-16T04:57:26;97754.44;;;-1.12;81.85
84289;BME280;75147;50.294;18.660;2024-01-16T04:59:52;97744.53;;;-1.18;82.09
84289;BME280;75147;50.294;18.660;2024-01-16T05:02:17;97755.06;;;-1.24;81.92
84289;BME280;75147;50.294;18.660;2024-01-16T05:04:43;97750.31;;;-1.30;82.76
84289;BME280;75147;50.294;18.660;2024-01-16T05:07:09;97757.38;;;-1.35;82.94
84289;BME280;75147;50.294;18.660;2024-01-16T05:09:34;97744.06;;;-1.40;83.60
84289;BME280;75147;50.294;18.660;2024-01-16T05:12:00;97761.22;;;-1.44;83.29
84289;BME280;75147;50.294;18.660;2024-01-16T05:14:25;97744.53;;;-1.49;84.42
84289;BME280;75147;50.294;18.660;2024-01-16T05:16:51;97773.38;;;-1.49;83.76
84289;BME280;75147;50.294;18.660;2024-01-16T05:19:17;97765.81;;;-1.50;84.05
84289;BME280;75147;50.294;18.660;2024-01-16T05:21:43;97759.09;;;-1.51;84.39
84289;BME280;75147;50.294;18.660;2024-01-16T05:24:08;97773.38;;;-1.49;84.67
84289;BME280;75147;50.294;18.660;2024-01-16T05:26:33;97766.56;;;-1.48;84.92
84289;BME280;75147;50.294;18.660;2024-01-16T05:28:59;97762.38;;;-1.49;85.00
84289;BME280;75147;50.294;18.660;2024-01-16T05:31:24;97760.72;;;-1.50;84.72
84289;BME280;75147;50.294;18.660;2024-01-16T05:33:50;97760.72;;;-1.50;85.03
84289;BME280;75147;50.294;18.660;2024-01-16T05:36:15;97764.09;;;-1.50;84.91
84289;BME280;75147;50.294;18.660;2024-01-16T05:38:40;97778.41;;;-1.47;85.32
84289;BME280;75147;50.294;18.660;2024-01-16T05:41:06;97770.69;;;-1.46;85.33
84289;BME280;75147;50.294;18.660;2024-01-16T05:43:31;97782.50;;;-1.45;85.45
84289;BME280;75147;50.294;18.660;2024-01-16T05:45:57;97772.22;;;-1.43;85.63
84289;BME280;75147;50.294;18.660;2024-01-16T05:48:22;97787.44;;;-1.42;85.50
84289;BME280;75147;50.294;18.660;2024-01-16T05:50:48;97788.25;;;-1.41;85.36
84289;BME280;75147;50.294;18.660;2024-01-16T05:53:13;97801.75;;;-1.39;85.54
84289;BME280;75147;50.294;18.660;2024-01-16T05:55:39;97795.00;;;-1.40;85.71
84289;BME280;75147;50.294;18.660;2024-01-16T05:58:04;97801.63;;;-1.38;86.19
84289;BME280;75147;50.294;18.660;2024-01-16T06:00:30;97797.38;;;-1.37;86.21
84289;BME280;75147;50.294;18.660;2024-01-16T06:02:55;97807.47;;;-1.36;85.61
84289;BME280;75147;50.294;18.660;2024-01-16T06:05:21;97802.31;;;-1.34;85.71
84289;BME280;75147;50.294;18.660;2024-01-16T06:07:46;97813.25;;;-1.32;85.55
84289;BME280;75147;50.294;18.660;2024-01-16T06:10:12;97819.97;;;-1.31;85.91
84289;BME280;75147;50.294;18.660;2024-01-16T06:12:39;97825.88;;;-1.31;86.00
84289;BME280;75147;50.294;18.660;2024-01-16T06:15:04;97824.16;;;-1.30;85.86
84289;BME280;75147;50.294;18.660;2024-01-16T06:17:30;97829.19;;;-1.29;86.12
84289;BME280;75147;50.294;18.660;2024-01-16T06:19:55;97825.75;;;-1.28;85.94
84289;BME280;75147;50.294;18.660;2024-01-16T06:22:21;97819.69;;;-1.25;86.32
84289;BME280;75147;50.294;18.660;2024-01-16T06:24:46;97827.38;;;-1.27;86.38
84289;BME280;75147;50.294;18.660;2024-01-16T06:27:12;97828.03;;;-1.23;86.40
84289;BME280;75147;50.294;18.660;2024-01-16T06:29:44;97834.78;;;-1.22;86.46
84289;BME280;75147;50.294;18.660;2024-01-16T06:32:10;97846.53;;;-1.19;86.44
84289;BME280;75147;50.294;18.660;2024-01-16T06:34:35;97845.72;;;-1.20;86.44
84289;BME280;75147;50.294;18.660;2024-01-16T06:37:00;97850.91;;;-1.22;86.27
84289;BME280;75147;50.294;18.660;2024-01-16T06:39:26;97869.53;;;-1.21;86.39
84289;BME280;75147;50.294;18.660;2024-01-16T06:41:51;97875.47;;;-1.21;86.37
84289;BME280;75147;50.294;18.660;2024-01-16T06:44:17;97872.91;;;-1.21;86.37
84289;BME280;75147;50.294;18.660;2024-01-16T06:46:43;97880.50;;;-1.19;86.41
84289;BME280;75147;50.294;18.660;2024-01-16T06:49:08;97884.84;;;-1.21;86.59
84289;BME280;75147;50.294;18.660;2024-01-16T06:51:34;97889.09;;;-1.22;86.34
84289;BME280;75147;50.294;18.660;2024-01-16T06:53:59;97907.75;;;-1.21;86.30
84289;BME280;75147;50.294;18.660;2024-01-16T06:56:24;97907.06;;;-1.25;86.01
84289;BME280;75147;50.294;18.660;2024-01-16T06:58:50;97906.34;;;-1.27;86.28
84289;BME280;75147;50.294;18.660;2024-01-16T07:01:15;97905.53;;;-1.27;86.25
84289;BME280;75147;50.294;18.660;2024-01-16T07:03:40;97920.75;;;-1.26;86.39
84289;BME280;75147;50.294;18.660;2024-01-16T07:06:06;97925.91;;;-1.27;86.20
84289;BME280;75147;50.294;18.660;2024-01-16T07:08:31;97924.19;;;-1.27;86.31
84289;BME280;75147;50.294;18.660;2024-01-16T07:10:57;97927.63;;;-1.28;85.62
84289;BME280;75147;50.294;18.660;2024-01-16T07:13:22;97920.88;;;-1.29;85.72
84289;BME280;75147;50.294;18.660;2024-01-16T07:15:48;97926.81;;;-1.28;85.47
84289;BME280;75147;50.294;18.660;2024-01-16T07:18:14;97931.81;;;-1.27;85.20
84289;BME280;75147;50.294;18.660;2024-01-16T07:20:39;97936.69;;;-1.22;85.73
84289;BME280;75147;50.294;18.660;2024-01-16T07:23:04;97933.22;;;-1.21;85.41
84289;BME280;75147;50.294;18.660;2024-01-16T07:25:30;97934.06;;;-1.21;85.47
84289;BME280;75147;50.294;18.660;2024-01-16T07:27:56;97935.53;;;-1.16;84.88
84289;BME280;75147;50.294;18.660;2024-01-16T07:30:21;97938.78;;;-1.13;84.10
84289;BME280;75147;50.294;18.660;2024-01-16T07:32:47;97947.31;;;-1.14;84.43
84289;BME280;75147;50.294;18.660;2024-01-16T07:35:12;97953.16;;;-1.12;84.36
84289;BME280;75147;50.294;18.660;2024-01-16T07:37:38;97947.06;;;-1.09;84.04
84289;BME280;75147;50.294;18.660;2024-01-16T07:40:04;97954.63;;;-1.08;84.17
84289;BME280;75147;50.294;18.660;2024-01-16T07:42:31;97950.94;;;-1.02;83.92
84289;BME280;75147;50.294;18.660;2024-01-16T07:45:00;97957.69;;;-1.01;83.61
84289;BME280;75147;50.294;18.660;2024-01-16T07:47:26;97955.91;;;-0.99;83.41
84289;BME280;75147;50.294;18.660;2024-01-16T07:49:51;97960.06;;;-0.98;83.32
84289;BME280;75147;50.294;18.660;2024-01-16T07:52:17;97961.91;;;-1.00;82.97
84289;BME280;75147;50.294;18.660;2024-01-16T07:54:42;97965.41;;;-1.03;82.96
84289;BME280;75147;50.294;18.660;2024-01-16T07:57:07;97969.75;;;-1.05;82.55
84289;BME280;75147;50.294;18.660;2024-01-16T07:59:33;97968.28;;;-1.09;82.15
84289;BME280;75147;50.294;18.660;2024-01-16T08:01:58;97958.97;;;-1.10;82.26
84289;BME280;75147;50.294;18.660;2024-01-16T08:04:24;97969.25;;;-1.11;81.69
84289;BME280;75147;50.294;18.660;2024-01-16T08:06:49;97968.53;;;-1.13;81.12
84289;BME280;75147;50.294;18.660;2024-01-16T08:09:15;97978.53;;;-1.10;80.95
84289;BME280;75147;50.294;18.660;2024-01-16T08:11:40;97991.22;;;-1.09;80.11
84289;BME280;75147;50.294;18.660;2024-01-16T08:14:05;97995.41;;;-1.08;79.90
84289;BME280;75147;50.294;18.660;2024-01-16T08:16:31;97988.41;;;-1.04;79.45
84289;BME280;75147;50.294;18.660;2024-01-16T08:18:56;97995.09;;;-1.02;78.92
84289;BME280;75147;50.294;18.660;2024-01-16T08:21:22;97995.75;;;-0.98;78.49
84289;BME280;75147;50.294;18.660;2024-01-16T08:23:47;97993.00;;;-0.94;79.04
84289;BME280;75147;50.294;18.660;2024-01-16T08:26:12;97995.22;;;-0.88;78.22
84289;BME280;75147;50.294;18.660;2024-01-16T08:28:38;97994.75;;;-0.78;78.38
84289;BME280;75147;50.294;18.660;2024-01-16T08:31:04;97989.03;;;-0.66;77.79
84289;BME280;75147;50.294;18.660;2024-01-16T08:33:29;97991.84;;;-0.55;77.54
84289;BME280;75147;50.294;18.660;2024-01-16T08:35:54;97999.00;;;-0.46;77.37
84289;BME280;75147;50.294;18.660;2024-01-16T08:38:20;98002.97;;;-0.41;77.02
84289;BME280;75147;50.294;18.660;2024-01-16T08:40:45;98010.94;;;-0.31;76.74
84289;BME280;75147;50.294;18.660;2024-01-16T08:43:11;98008.88;;;-0.24;76.56
84289;BME280;75147;50.294;18.660;2024-01-16T08:45:36;98009.44;;;-0.19;76.25
84289;BME280;75147;50.294;18.660;2024-01-16T08:48:01;98017.78;;;-0.16;76.43
84289;BME280;75147;50.294;18.660;2024-01-16T08:50:28;98018.53;;;-0.14;76.03
84289;BME280;75147;50.294;18.660;2024-01-16T08:52:54;98010.88;;;-0.14;75.27
84289;BME280;75147;50.294;18.660;2024-01-16T08:55:19;98014.25;;;-0.13;75.45
84289;BME280;75147;50.294;18.660;2024-01-16T08:57:44;98020.09;;;-0.11;75.24
84289;BME280;75147;50.294;18.660;2024-01-16T09:00:10;98026.19;;;-0.14;75.01
84289;BME280;75147;50.294;18.660;2024-01-16T09:02:35;98033.75;;;-0.12;75.24
84289;BME280;75147;50.294;18.660;2024-01-16T09:05:01;98040.56;;;-0.13;74.96
84289;BME280;75147;50.294;18.660;2024-01-16T09:07:27;98037.13;;;-0.12;74.79
84289;BME280;75147;50.294;18.660;2024-01-16T09:09:52;98042.81;;;-0.07;74.51
84289;BME280;75147;50.294;18.660;2024-01-16T09:12:18;98044.44;;;-0.06;74.26
84289;BME280;75147;50.294;18.660;2024-01-16T09:14:44;98041.66;;;-0.01;74.33
84289;BME280;75147;50.294;18.660;2024-01-16T09:17:09;98050.03;;;0.01;74.39
84289;BME280;75147;50.294;18.660;2024-01-16T09:19:34;98046.59;;;0.02;73.87
84289;BME280;75147;50.294;18.660;2024-01-16T09:22:00;98047.16;;;0.07;74.00
84289;BME280;75147;50.294;18.660;2024-01-16T09:24:25;98055.31;;;0.14;74.12
84289;BME280;75147;50.294;18.660;2024-01-16T09:26:50;98043.28;;;0.16;73.33
84289;BME280;75147;50.294;18.660;2024-01-16T09:29:16;98053.25;;;0.20;72.86
84289;BME280;75147;50.294;18.660;2024-01-16T09:31:42;98053.84;;;0.25;72.61
84289;BME280;75147;50.294;18.660;2024-01-16T09:34:07;98058.78;;;0.28;71.77
84289;BME280;75147;50.294;18.660;2024-01-16T09:36:33;98057.59;;;0.34;71.76
84289;BME280;75147;50.294;18.660;2024-01-16T09:39:01;98060.75;;;0.39;71.19
84289;BME280;75147;50.294;18.660;2024-01-16T09:41:27;98060.41;;;0.45;70.38
84289;BME280;75147;50.294;18.660;2024-01-16T09:43:53;98056.69;;;0.51;69.69
84289;BME280;75147;50.294;18.660;2024-01-16T09:46:20;98063.00;;;0.59;68.99
84289;BME280;75147;50.294;18.660;2024-01-16T09:48:48;98071.16;;;0.66;68.29
84289;BME280;75147;50.294;18.660;2024-01-16T09:51:15;98063.31;;;0.69;68.52
84289;BME280;75147;50.294;18.660;2024-01-16T09:53:41;98068.00;;;0.76;67.92
84289;BME280;75147;50.294;18.660;2024-01-16T09:56:14;98066.00;;;0.82;67.58
84289;BME280;75147;50.294;18.660;2024-01-16T09:58:41;98070.84;;;0.86;67.30
84289;BME280;75147;50.294;18.660;2024-01-16T10:01:08;98071.53;;;0.90;67.06
84289;BME280;75147;50.294;18.660;2024-01-16T10:03:34;98069.72;;;0.92;66.20
84289;BME280;75147;50.294;18.660;2024-01-16T10:06:04;98077.03;;;0.98;66.05
84289;BME280;75147;50.294;18.660;2024-01-16T10:08:31;98085.16;;;1.04;66.04
84289;BME280;75147;50.294;18.660;2024-01-16T10:10:57;98082.25;;;1.10;65.99
84289;BME280;75147;50.294;18.660;2024-01-16T10:13:23;98085.38;;;1.15;65.31
84289;BME280;75147;50.294;18.660;2024-01-16T10:15:52;98088.47;;;1.20;65.60
84289;BME280;75147;50.294;18.660;2024-01-16T10:20:49;98098.16;;;1.15;64.79
84289;BME280;75147;50.294;18.660;2024-01-16T10:23:24;98100.88;;;1.12;64.72
84289;BME280;75147;50.294;18.660;2024-01-16T10:26:12;98097.69;;;1.09;65.09
84289;BME280;75147;50.294;18.660;2024-01-16T10:28:39;98098.78;;;1.05;64.71
84289;BME280;75147;50.294;18.660;2024-01-16T10:31:05;98098.19;;;1.00;64.82
84289;BME280;75147;50.294;18.660;2024-01-16T10:33:31;98115.38;;;0.98;65.75
84289;BME280;75147;50.294;18.660;2024-01-16T10:36:13;98114.16;;;0.89;64.93
84289;BME280;75147;50.294;18.660;2024-01-16T10:38:40;98118.44;;;0.89;65.63
84289;BME280;75147;50.294;18.660;2024-01-16T10:43:35;98136.13;;;0.77;65.81
84289;BME280;75147;50.294;18.660;2024-01-16T10:46:15;98121.84;;;0.73;66.66
84289;BME280;75147;50.294;18.660;2024-01-16T10:48:42;98127.06;;;0.72;66.67
84289;BME280;75147;50.294;18.660;2024-01-16T10:51:10;98124.56;;;0.70;67.25
84289;BME280;75147;50.294;18.660;2024-01-16T10:53:37;98142.63;;;0.67;67.61
84289;BME280;75147;50.294;18.660;2024-01-16T10:56:10;98133.22;;;0.68;68.24
84289;BME280;75147;50.294;18.660;2024-01-16T10:58:36;98147.56;;;0.70;68.97
84289;BME280;75147;50.294;18.660;2024-01-16T11:01:05;98145.59;;;0.75;69.29
84289;BME280;75147;50.294;18.660;2024-01-16T11:03:47;98149.72;;;0.78;70.13
84289;BME280;75147;50.294;18.660;2024-01-16T11:06:18;98144.69;;;0.76;70.77
84289;BME280;75147;50.294;18.660;2024-01-16T11:08:47;98153.91;;;0.79;71.10
84289;BME280;75147;50.294;18.660;2024-01-16T11:11:14;98161.06;;;0.72;71.01
84289;BME280;75147;50.294;18.660;2024-01-16T11:13:40;98167.13;;;0.71;71.14
84289;BME280;75147;50.294;18.660;2024-01-16T11:16:07;98171.75;;;0.65;72.01
84289;BME280;75147;50.294;18.660;2024-01-16T11:18:34;98161.84;;;0.59;72.24
84289;BME280;75147;50.294;18.660;2024-01-16T11:21:01;98159.94;;;0.62;72.48
84289;BME280;75147;50.294;18.660;2024-01-16T11:23:28;98167.53;;;0.64;72.99
84289;BME280;75147;50.294;18.660;2024-01-16T11:25:53;98167.75;;;0.59;73.34
84289;BME280;75147;50.294;18.660;2024-01-16T11:28:19;98166.28;;;0.55;74.05
84289;BME280;75147;50.294;18.660;2024-01-16T11:30:45;98175.03;;;0.51;73.97
84289;BME280;75147;50.294;18.660;2024-01-16T11:39:17;98168.91;;;0.54;74.52
84289;BME280;75147;50.294;18.660;2024-01-16T11:41:58;98177.59;;;0.51;74.25
84289;BME280;75147;50.294;18.660;2024-01-16T11:44:44;98180.38;;;0.47;73.93
84289;BME280;75147;50.294;18.660;2024-01-16T11:47:19;98178.16;;;0.40;73.43
84289;BME280;75147;50.294;18.660;2024-01-16T11:49:50;98178.41;;;0.36;72.87
84289;BME280;75147;50.294;18.660;2024-01-16T11:52:42;98177.81;;;0.31;72.44
84289;BME280;75147;50.294;18.660;2024-01-16T11:55:35;98184.59;;;0.32;72.70
84289;BME280;75147;50.294;18.660;2024-01-16T12:00:40;98175.28;;;0.31;72.23
84289;BME280;75147;50.294;18.660;2024-01-16T12:03:07;98177.31;;;0.40;72.10
84289;BME280;75147;50.294;18.660;2024-01-16T12:05:33;98173.31;;;0.52;72.27
84289;BME280;75147;50.294;18.660;2024-01-16T12:07:58;98163.47;;;0.60;71.86
84289;BME280;75147;50.294;18.660;2024-01-16T12:10:25;98166.94;;;0.74;72.16
84289;BME280;75147;50.294;18.660;2024-01-16T12:12:51;98170.31;;;0.75;70.88
84289;BME280;75147;50.294;18.660;2024-01-16T12:15:21;98171.16;;;0.75;68.42
84289;BME280;75147;50.294;18.660;2024-01-16T12:17:54;98177.41;;;0.70;67.05
84289;BME280;75147;50.294;18.660;2024-01-16T12:20:21;98170.81;;;0.66;66.80
84289;BME280;75147;50.294;18.660;2024-01-16T12:22:57;98155.81;;;0.60;67.29
84289;BME280;75147;50.294;18.660;2024-01-16T12:25:24;98164.13;;;0.48;66.99
84289;BME280;75147;50.294;18.660;2024-01-16T12:28:06;98164.31;;;0.45;67.59
84289;BME280;75147;50.294;18.660;2024-01-16T12:30:35;98169.66;;;0.40;67.43
84289;BME280;75147;50.294;18.660;2024-01-16T12:33:07;98167.44;;;0.34;67.69
84289;BME280;75147;50.294;18.660;2024-01-16T12:35:43;98176.31;;;0.27;68.47
84289;BME280;75147;50.294;18.660;2024-01-16T12:38:14;98181.84;;;0.19;68.38
84289;BME280;75147;50.294;18.660;2024-01-16T12:40:42;98179.53;;;0.15;68.90
84289;BME280;75147;50.294;18.660;2024-01-16T12:43:09;98172.09;;;0.10;69.37
84289;BME280;75147;50.294;18.660;2024-01-16T12:45:35;98176.38;;;0.10;69.34
84289;BME280;75147;50.294;18.660;2024-01-16T12:48:01;98186.34;;;0.14;69.61
84289;BME280;75147;50.294;18.660;2024-01-16T12:50:30;98176.00;;;0.17;69.10
84289;BME280;75147;50.294;18.660;2024-01-16T12:55:32;98175.41;;;0.28;69.65
84289;BME280;75147;50.294;18.660;2024-01-16T13:00:47;98176.75;;;0.35;68.93
84289;BME280;75147;50.294;18.660;2024-01-16T13:03:25;98184.25;;;0.38;68.73
84289;BME280;75147;50.294;18.660;2024-01-16T13:05:56;98181.59;;;0.39;68.61
84289;BME280;75147;50.294;18.660;2024-01-16T13:08:22;98178.81;;;0.44;68.36